Time;durP1;ratioP1;P1;durP2;ratioP2;P2;SDS_P1;SDS_P2;PMS_P1;PMS_P2;Temp;Humidity;BMP_temperature;BMP_pressure;BME280_temperature;BME280_humidity;BME280_pressure;Samples;Min_cycle;Max_cycle;Signal;HPM_P1;HPM_P2
2023/03/23 00:01:20;;;;;;;23.10;14.82;;;;;;;10.38;71.43;100291.97;5054428;28;20036;-68
2023/03/23 00:03:51;;;;;;;26.90;15.63;;;;;;;10.41;70.96;100287.16;5052146;28;20036;-70
2023/03/23 00:06:20;;;;;;;28.35;15.70;;;;;;;10.45;71.06;100290.44;5054190;28;20016;-70
2023/03/23 00:08:56;;;;;;;22.85;15.65;;;;;;;10.43;71.05;100284.34;5055006;28;20039;-69
2023/03/23 00:11:26;;;;;;;31.48;17.27;;;;;;;10.42;71.00;100288.03;5054564;28;20056;-69
2023/03/23 00:13:52;;;;;;;28.02;16.80;;;;;;;10.38;70.83;100282.06;5055737;28;20028;-69
2023/03/23 00:16:20;;;;;;;29.13;17.35;;;;;;;10.38;71.27;100278.56;5063748;28;20101;-69
2023/03/23 00:18:47;;;;;;;31.17;18.13;;;;;;;10.33;71.27;100273.59;5055037;28;20391;-69
2023/03/23 00:21:13;;;;;;;28.35;17.15;;;;;;;10.29;71.68;100279.38;5056787;28;20430;-69
2023/03/23 00:23:39;;;;;;;28.77;17.67;;;;;;;10.22;71.56;100276.34;5056870;28;20028;-69
2023/03/23 00:26:06;;;;;;;29.27;17.45;;;;;;;10.19;71.92;100273.09;5062804;28;20095;-69
2023/03/23 00:28:32;;;;;;;27.40;17.70;;;;;;;10.17;71.95;100277.75;5063609;28;20463;-69
2023/03/23 00:30:59;;;;;;;26.20;16.27;;;;;;;10.12;72.11;100270.09;5060617;28;20056;-69
2023/03/23 00:33:28;;;;;;;25.17;16.33;;;;;;;10.09;72.49;100270.34;5061838;28;20032;-69
2023/03/23 00:35:55;;;;;;;26.27;16.15;;;;;;;10.08;72.46;100267.81;5052982;28;20036;-69
2023/03/23 00:38:22;;;;;;;28.98;17.88;;;;;;;10.03;72.53;100270.84;5056922;28;20024;-68
2023/03/23 00:40:49;;;;;;;30.70;16.77;;;;;;;10.01;72.37;100269.28;5058237;28;20024;-69
2023/03/23 00:43:16;;;;;;;27.50;16.42;;;;;;;9.94;73.01;100265.44;5061178;28;20032;-68
2023/03/23 00:45:44;;;;;;;24.08;16.02;;;;;;;9.96;73.04;100274.22;5062719;28;20046;-69
2023/03/23 00:48:14;;;;;;;28.75;17.75;;;;;;;9.81;73.35;100254.94;5056775;28;20020;-69
2023/03/23 00:50:39;;;;;;;23.95;15.07;;;;;;;9.77;73.37;100250.81;5060316;28;20028;-69
2023/03/23 00:53:05;;;;;;;29.88;17.25;;;;;;;9.84;73.01;100270.75;5064679;28;20972;-69
2023/03/23 00:55:31;;;;;;;27.92;17.40;;;;;;;9.72;73.47;100255.72;5057753;28;20024;-69
2023/03/23 00:57:56;;;;;;;24.42;15.90;;;;;;;9.75;73.94;100268.88;5054472;28;20111;-69
2023/03/23 01:00:23;;;;;;;27.67;16.80;;;;;;;9.79;73.46;100272.97;5046974;28;20033;-69
2023/03/23 01:02:51;;;;;;;24.38;16.60;;;;;;;9.78;73.27;100262.38;5063052;28;20043;-70
2023/03/23 01:05:17;;;;;;;25.88;17.38;;;;;;;9.82;73.39;100267.34;5064588;28;20024;-69
2023/03/23 01:07:43;;;;;;;26.63;16.80;;;;;;;9.79;72.97;100253.38;5053959;28;20029;-70
2023/03/23 01:10:12;;;;;;;25.98;17.33;;;;;;;9.84;73.06;100262.72;5063341;28;20106;-69
2023/03/23 01:12:39;;;;;;;26.98;17.85;;;;;;;9.86;73.19;100252.72;5053940;28;20045;-69
2023/03/23 01:15:05;;;;;;;26.83;17.85;;;;;;;9.85;73.17;100261.72;5054442;28;20133;-69
2023/03/23 01:17:31;;;;;;;29.52;18.27;;;;;;;9.76;73.39;100242.91;5059570;28;20068;-69
2023/03/23 01:19:56;;;;;;;26.92;18.00;;;;;;;9.82;73.33;100245.94;5048144;28;20025;-69
2023/03/23 01:22:22;;;;;;;29.98;17.65;;;;;;;9.83;73.65;100254.81;5053485;28;20112;-69
2023/03/23 01:24:47;;;;;;;28.35;18.58;;;;;;;9.80;73.35;100249.72;5058300;28;20647;-68
2023/03/23 01:27:13;;;;;;;26.13;17.45;;;;;;;9.81;73.09;100254.94;5053464;28;20031;-69
2023/03/23 01:29:38;;;;;;;26.67;17.63;;;;;;;9.81;73.31;100254.94;5061341;28;20057;-69
2023/03/23 01:32:04;;;;;;;23.92;16.80;;;;;;;9.78;73.08;100249.84;5063850;28;20051;-69
2023/03/23 01:34:29;;;;;;;28.70;16.40;;;;;;;9.73;72.84;100245.84;5055344;28;20081;-68
2023/03/23 01:36:55;;;;;;;29.80;17.50;;;;;;;9.70;73.24;100255.00;5045026;28;20024;-71
2023/03/23 01:39:20;;;;;;;24.05;16.38;;;;;;;9.65;73.81;100246.53;5056789;28;20048;-63
2023/03/23 01:41:46;;;;;;;28.75;17.63;;;;;;;9.60;73.51;100250.53;5046945;28;20199;-63
2023/03/23 01:44:17;;;;;;;24.15;16.70;;;;;;;9.58;73.56;100248.03;5046562;28;20410;-63
2023/03/23 01:46:43;;;;;;;25.77;17.63;;;;;;;9.56;73.73;100252.66;5048381;28;20486;-63
2023/03/23 01:49:14;;;;;;;25.50;16.20;;;;;;;9.47;73.92;100241.84;5067008;28;20036;-63
2023/03/23 01:51:53;;;;;;;26.80;16.25;;;;;;;9.52;74.12;100259.25;5059734;28;20442;-63
2023/03/23 01:54:21;;;;;;;27.45;17.15;;;;;;;9.42;74.36;100252.97;5053759;28;20385;-63
2023/03/23 01:56:52;;;;;;;28.15;17.30;;;;;;;9.42;74.72;100252.97;5065914;28;20037;-63
2023/03/23 01:59:19;;;;;;;25.88;16.95;;;;;;;9.39;75.12;100257.72;5059657;28;20040;-63
2023/03/23 02:01:46;;;;;;;29.13;18.17;;;;;;;9.26;75.09;100241.84;5062267;28;20029;-63
2023/03/23 02:04:16;;;;;;;27.35;17.58;;;;;;;9.27;75.44;100249.75;5053345;28;20021;-64
2023/03/23 02:06:44;;;;;;;27.67;17.65;;;;;;;9.16;75.49;100252.47;5046850;28;20021;-63
2023/03/23 02:09:13;;;;;;;27.38;17.15;;;;;;;9.19;76.06;100259.38;5045880;28;20028;-63
2023/03/23 02:11:39;;;;;;;25.75;16.50;;;;;;;9.14;76.01;100257.13;5048437;28;20491;-69
2023/03/23 02:14:05;;;;;;;26.08;16.73;;;;;;;9.08;76.14;100259.44;5049727;28;20036;-69
2023/03/23 02:16:46;;;;;;;28.83;17.65;;;;;;;9.02;76.63;100267.97;5045325;28;20041;-69
2023/03/23 02:19:37;;;;;;;27.55;17.30;;;;;;;8.90;76.68;100256.44;5049641;28;20052;-69
2023/03/23 02:22:38;;;;;;;29.08;18.25;;;;;;;8.84;76.37;100254.25;5049649;28;20538;-69
2023/03/23 02:25:25;;;;;;;28.13;17.58;;;;;;;8.76;77.04;100258.53;5051105;28;20074;-68
2023/03/23 02:28:12;;;;;;;25.40;17.00;;;;;;;8.67;77.88;100259.28;5050921;28;20032;-68
2023/03/23 02:30:56;;;;;;;26.38;17.10;;;;;;;8.59;78.32;100265.28;5049888;28;20537;-69
2023/03/23 02:33:58;;;;;;;26.90;16.83;;;;;;;8.51;78.56;100265.00;5051995;28;20103;-69
2023/03/23 02:36:46;;;;;;;29.52;18.58;;;;;;;8.47;79.01;100265.38;5050439;28;20035;-69
2023/03/23 02:39:42;;;;;;;31.08;17.95;;;;;;;8.46;80.49;100269.91;5054501;28;20486;-68
2023/03/23 02:42:14;;;;;;;28.63;17.67;;;;;;;8.41;80.09;100273.88;5051103;28;20446;-68
2023/03/23 02:44:43;;;;;;;27.85;17.88;;;;;;;8.38;80.57;100279.47;5048919;28;20016;-67
2023/03/23 02:47:17;;;;;;;28.35;17.02;;;;;;;8.32;80.80;100267.44;5049668;28;20131;-68
2023/03/23 02:49:45;;;;;;;25.60;15.93;;;;;;;8.28;80.22;100268.69;5052581;28;20033;-68
2023/03/23 02:52:16;;;;;;;23.52;16.95;;;;;;;8.27;80.04;100275.00;5056673;28;20040;-69
2023/03/23 02:54:44;;;;;;;26.90;16.73;;;;;;;8.23;80.53;100268.22;5060872;28;20025;-69
2023/03/23 02:57:09;;;;;;;31.40;17.35;;;;;;;8.24;80.67;100275.25;5055726;28;20428;-68
2023/03/23 02:59:35;;;;;;;25.38;15.18;;;;;;;8.14;80.45;100260.03;5060471;28;20029;-69
2023/03/23 03:02:09;;;;;;;29.55;17.45;;;;;;;8.22;80.52;100273.66;5059612;28;20032;-69
2023/03/23 03:04:40;;;;;;;25.70;17.15;;;;;;;8.20;81.30;100278.25;5061784;28;20039;-69
2023/03/23 03:07:36;;;;;;;28.52;17.80;;;;;;;8.22;80.68;100279.84;5056609;28;20040;-68
2023/03/23 03:10:06;;;;;;;30.17;18.77;;;;;;;8.23;80.85;100278.03;5062034;28;20037;-69
2023/03/23 03:13:09;;;;;;;28.30;18.02;;;;;;;8.22;80.86;100285.19;5055507;28;20039;-69
2023/03/23 03:15:55;;;;;;;29.00;17.92;;;;;;;8.11;80.83;100253.09;5058422;28;20402;-69
2023/03/23 03:18:26;;;;;;;29.13;17.52;;;;;;;8.24;80.89;100279.72;5056821;28;20039;-69
2023/03/23 03:20:58;;;;;;;28.15;17.70;;;;;;;8.25;80.69;100279.59;5068143;28;20028;-69
2023/03/23 03:23:27;;;;;;;26.42;15.90;;;;;;;8.28;81.05;100281.19;5059704;28;20036;-69
2023/03/23 03:25:57;;;;;;;25.70;16.02;;;;;;;8.22;80.64;100265.66;5050054;28;20039;-68
2023/03/23 03:28:23;;;;;;;25.40;16.58;;;;;;;8.28;80.20;100267.81;5049535;28;20033;-69
2023/03/23 03:30:55;;;;;;;23.33;16.10;;;;;;;8.34;80.04;100267.34;5061054;28;20029;-69
2023/03/23 03:33:25;;;;;;;23.55;15.18;;;;;;;8.41;79.93;100279.22;5051174;28;20031;-63
2023/03/23 03:35:53;;;;;;;23.25;15.30;;;;;;;8.46;79.30;100272.56;5048075;28;20031;-63
2023/03/23 03:38:19;;;;;;;23.35;14.10;;;;;;;8.51;79.01;100288.22;5058607;28;20070;-68
2023/03/23 03:40:45;;;;;;;23.95;14.50;;;;;;;8.52;78.80;100282.75;5062226;28;20112;-69
2023/03/23 03:43:10;;;;;;;21.55;13.40;;;;;;;8.46;78.20;100271.72;5057442;28;20454;-69
2023/03/23 03:45:36;;;;;;;18.98;12.52;;;;;;;8.58;77.67;100284.09;5056932;28;20538;-68
2023/03/23 03:48:02;;;;;;;21.13;13.18;;;;;;;8.63;77.60;100279.22;5061983;28;20033;-69
2023/03/23 03:50:28;;;;;;;22.85;12.82;;;;;;;8.62;77.55;100278.41;5053288;28;20074;-69
2023/03/23 03:52:53;;;;;;;19.38;12.32;;;;;;;8.63;77.19;100276.53;5057377;28;20020;-69
2023/03/23 03:55:18;;;;;;;17.58;11.68;;;;;;;8.57;77.32;100266.34;5056178;28;20035;-69
2023/03/23 03:57:44;;;;;;;17.77;12.00;;;;;;;8.68;76.71;100279.72;5061763;28;20440;-69
2023/03/23 04:00:14;;;;;;;19.27;11.40;;;;;;;8.67;76.67;100280.66;5059572;28;20024;-68
2023/03/23 04:02:54;;;;;;;22.90;11.85;;;;;;;8.68;77.08;100279.72;5057414;28;20029;-69
2023/03/23 04:05:22;;;;;;;18.98;11.00;;;;;;;8.67;77.00;100280.66;5055809;28;20032;-69
2023/03/23 04:07:51;;;;;;;16.65;11.25;;;;;;;8.65;76.86;100277.28;5057588;28;20025;-69
2023/03/23 04:10:19;;;;;;;18.77;11.50;;;;;;;8.69;76.33;100281.41;5057472;28;20112;-69
2023/03/23 04:12:45;;;;;;;16.50;10.90;;;;;;;8.70;76.66;100288.44;5059552;28;20028;-69
2023/03/23 04:15:11;;;;;;;19.10;12.13;;;;;;;8.71;76.66;100282.97;5056747;28;20072;-68
2023/03/23 04:17:37;;;;;;;14.15;10.82;;;;;;;8.66;76.22;100274.50;5066703;28;20113;-69
2023/03/23 04:20:11;;;;;;;16.98;11.40;;;;;;;8.73;75.81;100289.06;5054381;28;20028;-69
2023/03/23 04:22:36;;;;;;;15.85;10.25;;;;;;;8.74;75.55;100289.91;5050251;28;20390;-69
2023/03/23 04:25:05;;;;;;;16.75;10.82;;;;;;;8.72;75.91;100279.34;5056962;28;20028;-69
2023/03/23 04:27:31;;;;;;;15.90;10.70;;;;;;;8.71;75.76;100291.00;5044911;28;20395;-69
2023/03/23 04:29:58;;;;;;;20.15;13.20;;;;;;;8.71;75.76;100298.19;5058599;28;20035;-69
2023/03/23 04:32:28;;;;;;;21.10;14.05;;;;;;;8.71;76.25;100300.84;5059083;28;20545;-68
2023/03/23 04:34:56;;;;;;;21.30;13.95;;;;;;;8.58;75.74;100276.91;5050363;28;20380;-69
2023/03/23 04:37:25;;;;;;;21.35;12.95;;;;;;;8.62;76.08;100293.56;5056396;28;20032;-68
2023/03/23 04:40:00;;;;;;;24.08;14.85;;;;;;;8.57;75.92;100285.06;5049475;28;20060;-69
2023/03/23 04:42:30;;;;;;;26.70;13.80;;;;;;;8.56;76.53;100291.38;5058549;28;20036;-68
2023/03/23 04:44:57;;;;;;;22.92;13.07;;;;;;;8.49;76.75;100282.16;5047820;28;20048;-69
2023/03/23 04:47:23;;;;;;;19.23;13.00;;;;;;;8.47;77.34;100284.09;5047828;28;20707;-68
2023/03/23 04:49:49;;;;;;;23.17;13.82;;;;;;;8.49;77.63;100290.19;5047989;28;20386;-69
2023/03/23 04:52:14;;;;;;;19.30;13.10;;;;;;;8.43;78.30;100288.00;5056175;28;20021;-69
2023/03/23 04:54:40;;;;;;;20.42;13.75;;;;;;;8.35;78.53;100285.09;5059773;28;20081;-68
2023/03/23 04:57:06;;;;;;;18.52;12.27;;;;;;;8.38;78.12;100296.38;5056076;28;20670;-69
2023/03/23 04:59:32;;;;;;;19.10;12.50;;;;;;;8.35;78.56;100295.78;5062141;28;20387;-69
2023/03/23 05:01:58;;;;;;;17.63;12.18;;;;;;;8.36;79.25;100298.31;5057376;28;20036;-68
2023/03/23 05:04:25;;;;;;;22.10;13.00;;;;;;;8.34;79.77;100305.59;5054834;28;20409;-69
2023/03/23 05:06:51;;;;;;;19.23;11.98;;;;;;;8.34;79.83;100304.75;5058031;28;20021;-69
2023/03/23 05:09:17;;;;;;;17.48;11.88;;;;;;;8.29;79.91;100302.44;5047273;28;20024;-69
2023/03/23 05:11:43;;;;;;;19.20;12.68;;;;;;;8.25;80.10;100290.28;5050874;28;20508;-68
2023/03/23 05:14:08;;;;;;;21.88;12.93;;;;;;;8.32;80.54;100306.72;5060133;28;20033;-69
2023/03/23 05:16:36;;;;;;;17.63;11.93;;;;;;;8.32;80.21;100299.53;5056346;28;20045;-69
2023/03/23 05:19:02;;;;;;;19.38;11.85;;;;;;;8.34;80.27;100308.28;5048721;28;20052;-69
2023/03/23 05:21:28;;;;;;;19.63;13.23;;;;;;;8.38;80.09;100306.19;5049433;28;20036;-69
2023/03/23 05:23:54;;;;;;;21.23;12.70;;;;;;;8.35;80.22;100301.13;5047502;28;20185;-63
2023/03/23 05:26:20;;;;;;;17.13;11.80;;;;;;;8.47;80.04;100311.69;5048510;28;20028;-63
2023/03/23 05:28:46;;;;;;;20.95;14.13;;;;;;;8.51;79.65;100306.91;5046582;28;20029;-63
2023/03/23 05:31:13;;;;;;;21.45;13.68;;;;;;;8.58;78.92;100306.31;5046434;28;20395;-63
2023/03/23 05:33:38;;;;;;;24.55;14.68;;;;;;;8.62;79.30;100304.25;5047766;28;20031;-63
2023/03/23 05:36:06;;;;;;;27.38;16.77;;;;;;;8.74;78.78;100312.13;5045832;28;20033;-64
2023/03/23 05:38:32;;;;;;;35.03;20.65;;;;;;;8.76;77.39;100291.50;5046520;28;20028;-64
2023/03/23 05:41:00;;;;;;;49.35;26.08;;;;;;;8.98;76.23;100314.66;5045434;28;20048;-65
2023/03/23 05:43:26;;;;;;;44.83;26.73;;;;;;;9.05;76.91;100306.00;5042044;28;20035;-64
2023/03/23 05:45:52;;;;;;;50.70;29.83;;;;;;;9.09;76.70;100309.28;5044284;28;20028;-64
2023/03/23 05:48:17;;;;;;;68.32;36.65;;;;;;;9.23;75.11;100309.84;5058579;28;20028;-70
2023/03/23 05:50:43;;;;;;;63.80;35.33;;;;;;;9.29;75.20;100305.84;5057077;28;20028;-70
2023/03/23 05:53:08;;;;;;;60.72;33.72;;;;;;;9.39;74.47;100314.78;5056639;28;20371;-64
2023/03/23 05:55:34;;;;;;;60.65;33.85;;;;;;;9.47;74.50;100308.78;5048679;28;20045;-64
2023/03/23 05:57:59;;;;;;;52.78;31.60;;;;;;;9.51;74.32;100311.06;5055317;28;20032;-70
2023/03/23 06:00:28;;;;;;;44.03;27.25;;;;;;;9.55;73.16;100309.88;5049028;28;20016;-70
2023/03/23 06:02:56;;;;;;;34.22;19.75;;;;;;;9.89;71.70;100316.75;5052174;28;20422;-71
2023/03/23 06:05:22;;;;;;;30.55;19.20;;;;;;;9.90;71.45;100312.25;5063471;28;20037;-70
2023/03/23 06:07:47;;;;;;;25.88;16.85;;;;;;;9.99;71.68;100317.66;5048282;28;20031;-69
2023/03/23 06:10:14;;;;;;;28.00;16.60;;;;;;;10.06;71.74;100316.19;5060824;28;20056;-70
2023/03/23 06:12:40;;;;;;;22.80;14.07;;;;;;;10.20;71.19;100326.59;5060304;28;20545;-70
2023/03/23 06:15:07;;;;;;;21.58;12.48;;;;;;;10.27;71.00;100308.97;5050137;28;20044;-70
2023/03/23 06:17:33;;;;;;;15.63;10.95;;;;;;;10.45;70.00;100323.44;5042642;28;20106;-70
2023/03/23 06:19:59;;;;;;;17.83;11.73;;;;;;;10.60;69.62;100319.44;5040660;28;20040;-64
2023/03/23 06:22:25;;;;;;;16.52;11.75;;;;;;;10.80;68.68;100321.19;5046175;28;20037;-64
2023/03/23 06:24:50;;;;;;;19.20;12.65;;;;;;;10.85;67.72;100308.25;5050081;28;20090;-64
2023/03/23 06:27:17;;;;;;;16.23;11.40;;;;;;;11.03;67.98;100324.53;5050484;28;20044;-64
2023/03/23 06:29:43;;;;;;;18.17;10.70;;;;;;;11.18;67.11;100318.63;5053569;28;20032;-71
2023/03/23 06:32:12;;;;;;;20.48;11.50;;;;;;;11.34;66.31;100332.38;5053813;28;20036;-71
2023/03/23 06:34:38;;;;;;;15.77;10.98;;;;;;;11.50;65.39;100327.28;5058090;28;20028;-70
2023/03/23 06:37:05;;;;;;;17.45;10.48;;;;;;;11.67;65.45;100328.44;5054352;28;20037;-71
2023/03/23 06:39:30;;;;;;;22.50;11.82;;;;;;;11.84;64.12;100322.38;5055101;28;20020;-71
2023/03/23 06:41:59;;;;;;;17.33;10.32;;;;;;;12.03;64.04;100322.34;5049240;28;20040;-71
2023/03/23 06:44:24;;;;;;;14.80;10.48;;;;;;;12.24;63.24;100323.03;5051036;28;20067;-71
2023/03/23 06:46:50;;;;;;;17.70;11.05;;;;;;;12.42;63.08;100326.66;5049987;28;20479;-64
2023/03/23 06:49:16;;;;;;;18.92;10.38;;;;;;;12.65;62.80;100322.63;5049583;28;20047;-65
2023/03/23 06:51:41;;;;;;;18.77;10.55;;;;;;;12.87;61.51;100310.63;5046098;28;20134;-65
2023/03/23 06:54:07;;;;;;;19.67;10.52;;;;;;;13.15;61.36;100318.56;5048167;28;20037;-64
2023/03/23 06:56:32;;;;;;;15.57;9.68;;;;;;;13.38;61.10;100327.91;5051220;28;20113;-65
2023/03/23 06:58:58;;;;;;;18.17;10.52;;;;;;;13.66;60.58;100323.28;5041981;28;20028;-64
2023/03/23 07:01:23;;;;;;;19.58;9.60;;;;;;;13.91;58.86;100318.97;5046729;28;20171;-65
2023/03/23 07:03:49;;;;;;;12.75;9.32;;;;;;;14.18;58.43;100316.16;5046798;28;20401;-65
2023/03/23 07:06:15;;;;;;;13.30;9.60;;;;;;;14.44;57.29;100309.78;5045709;28;20040;-65
2023/03/23 07:08:41;;;;;;;19.70;10.27;;;;;;;14.70;56.47;100312.47;5054299;28;20028;-65
2023/03/23 07:11:07;;;;;;;14.40;8.95;;;;;;;14.87;56.60;100303.44;5057202;28;20410;-65
2023/03/23 07:13:33;;;;;;;13.13;9.48;;;;;;;15.07;55.60;100288.66;5047528;28;20032;-65
2023/03/23 07:15:59;;;;;;;16.65;9.15;;;;;;;15.45;54.60;100320.56;5057080;28;20053;-71
2023/03/23 07:18:24;;;;;;;10.15;8.20;;;;;;;15.69;54.07;100310.63;5058671;28;20029;-71
2023/03/23 07:20:51;;;;;;;10.60;8.07;;;;;;;15.94;53.25;100323.13;5052043;28;20032;-71
2023/03/23 07:23:18;;;;;;;15.13;8.93;;;;;;;16.12;52.67;100300.47;5057854;28;20035;-71
2023/03/23 07:25:48;;;;;;;12.55;8.18;;;;;;;16.44;52.12;100311.31;5042127;28;20499;-71
2023/03/23 07:28:18;;;;;;;11.45;7.07;;;;;;;16.68;51.26;100295.84;5048289;28;20032;-71
2023/03/23 07:30:49;;;;;;;8.60;6.80;;;;;;;16.96;50.52;100309.78;5055182;28;20123;-71
2023/03/23 07:33:15;;;;;;;12.80;7.03;;;;;;;17.18;49.94;100293.56;5056690;28;20418;-71
2023/03/23 07:35:40;;;;;;;10.13;7.22;;;;;;;17.50;48.86;100298.84;5055491;28;20029;-71
2023/03/23 07:38:06;;;;;;;9.15;7.05;;;;;;;17.73;48.63;100304.28;5056425;28;20089;-71
2023/03/23 07:40:35;;;;;;;9.70;6.60;;;;;;;18.01;47.88;100303.56;5052237;28;20092;-71
2023/03/23 07:43:01;;;;;;;11.18;6.57;;;;;;;18.32;47.55;100305.31;5055906;28;20112;-71
2023/03/23 07:45:27;;;;;;;8.63;6.22;;;;;;;18.56;45.72;100286.91;5053488;28;20033;-71
2023/03/23 07:47:53;;;;;;;8.30;6.63;;;;;;;18.92;45.89;100303.31;5052030;28;20036;-71
2023/03/23 07:50:22;;;;;;;11.38;7.07;;;;;;;19.24;44.31;100286.56;5059872;28;20032;-71
2023/03/23 07:52:48;;;;;;;7.45;5.88;;;;;;;19.59;43.78;100293.91;5057353;28;20364;-66
2023/03/23 07:55:17;;;;;;;9.25;6.70;;;;;;;19.98;42.86;100303.34;5054068;28;20478;-65
2023/03/23 07:57:48;;;;;;;10.23;6.32;;;;;;;20.53;42.38;100302.56;5048310;28;20037;-65
2023/03/23 08:00:19;;;;;;;8.48;5.90;;;;;;;21.21;40.66;100301.72;5046100;28;20505;-66
2023/03/23 08:02:46;;;;;;;9.63;5.68;;;;;;;21.79;38.49;100310.13;5039028;28;20032;-66
2023/03/23 08:05:13;;;;;;;8.00;5.18;;;;;;;22.67;36.83;100300.72;5058350;28;20090;-66
2023/03/23 08:07:39;;;;;;;5.95;4.97;;;;;;;23.59;35.25;100299.38;5043680;28;20028;-63
2023/03/23 08:10:10;;;;;;;8.57;4.32;;;;;;;24.48;33.73;100292.63;5048730;28;20052;-63
2023/03/23 08:12:36;;;;;;;6.53;4.30;;;;;;;25.83;31.44;100293.19;5048151;28;20441;-64
2023/03/23 08:15:02;;;;;;;7.55;3.92;;;;;;;26.73;29.81;100290.03;5052432;28;20025;-63
2023/03/23 08:17:28;;;;;;;6.85;4.28;;;;;;;27.25;28.95;100304.72;5049866;28;20859;-63
2023/03/23 08:19:54;;;;;;;5.65;4.10;;;;;;;28.30;28.18;100299.34;5065619;28;20033;-64
2023/03/23 08:22:20;;;;;;;4.30;3.80;;;;;;;28.72;26.81;100291.50;5040600;28;20029;-63
2023/03/23 08:24:46;;;;;;;7.22;4.18;;;;;;;29.55;26.53;100297.63;5052896;28;20057;-70
2023/03/23 08:27:12;;;;;;;4.78;4.30;;;;;;;29.53;26.12;100294.28;5051671;28;20060;-70
2023/03/23 08:29:38;;;;;;;5.53;3.70;;;;;;;29.57;26.15;100294.63;5059226;28;20036;-70
2023/03/23 08:32:04;;;;;;;4.07;3.67;;;;;;;30.27;24.71;100306.47;5058565;28;20029;-70
2023/03/23 08:34:30;;;;;;;4.68;3.42;;;;;;;30.47;24.27;100292.81;5054047;28;20029;-64
2023/03/23 08:36:56;;;;;;;8.27;4.18;;;;;;;30.89;24.04;100299.25;5050195;28;20025;-64
2023/03/23 08:39:22;;;;;;;6.38;3.90;;;;;;;30.64;24.14;100310.09;5058300;28;20051;-64
2023/03/23 08:41:48;;;;;;;6.15;3.78;;;;;;;30.41;24.36;100291.91;5049575;28;20031;-64
2023/03/23 08:44:15;;;;;;;5.63;3.65;;;;;;;30.54;24.46;100290.66;5051583;28;20040;-70
2023/03/23 08:46:41;;;;;;;5.47;3.63;;;;;;;30.89;23.79;100304.78;5051827;28;20101;-71
2023/03/23 08:49:06;;;;;;;6.47;3.70;;;;;;;31.10;23.34;100303.78;5055914;28;20051;-70
2023/03/23 08:51:32;;;;;;;3.38;3.08;;;;;;;30.80;23.88;100311.06;5055219;28;20040;-71
2023/03/23 08:53:58;;;;;;;4.85;3.28;;;;;;;30.85;23.81;100297.28;5058711;28;20478;-71
2023/03/23 08:56:24;;;;;;;4.80;3.10;;;;;;;30.88;24.12;100299.50;5050615;28;20036;-71
2023/03/23 08:58:50;;;;;;;4.10;3.15;;;;;;;31.52;23.58;100299.03;5051847;28;20064;-71
2023/03/23 09:01:15;;;;;;;4.72;3.38;;;;;;;32.15;22.50;100304.19;5059601;28;21870;-71
2023/03/23 09:03:41;;;;;;;2.78;2.58;;;;;;;32.38;22.01;100309.25;5056237;28;20028;-71
2023/03/23 09:06:08;;;;;;;2.95;2.75;;;;;;;32.28;21.89;100302.84;5053211;28;20028;-71
2023/03/23 09:08:35;;;;;;;3.25;2.92;;;;;;;32.56;21.72;100300.34;5051933;28;20025;-72
2023/03/23 09:11:06;;;;;;;5.63;2.65;;;;;;;32.68;22.00;100302.84;5053545;28;20613;-71
2023/03/23 09:13:33;;;;;;;3.30;2.67;;;;;;;32.20;21.96;100304.22;5052049;28;20029;-71
2023/03/23 09:15:58;;;;;;;4.15;2.78;;;;;;;32.91;21.16;100304.25;5055235;28;20491;-71
2023/03/23 09:18:24;;;;;;;4.70;3.22;;;;;;;32.69;21.47;100298.94;5053244;28;20036;-72
2023/03/23 09:20:51;;;;;;;3.10;2.80;;;;;;;32.88;21.63;100299.25;5057086;28;20494;-71
2023/03/23 09:23:16;;;;;;;2.90;2.50;;;;;;;33.48;20.67;100293.50;5054108;28;20029;-71
2023/03/23 09:25:42;;;;;;;5.30;2.50;;;;;;;34.30;19.89;100296.38;5058248;28;20047;-71
2023/03/23 09:28:08;;;;;;;5.75;4.93;;;;;;;33.70;20.52;100303.16;5057968;28;20120;-71
2023/03/23 09:30:36;;;;;;;3.00;2.70;;;;;;;33.63;20.77;100299.00;5052068;28;20021;-72
2023/03/23 09:33:03;;;;;;;4.13;2.47;;;;;;;34.06;19.85;100296.28;5047567;28;20032;-71
2023/03/23 09:35:31;;;;;;;3.65;2.60;;;;;;;34.16;20.08;100281.44;5054614;28;20043;-72
2023/03/23 09:38:00;;;;;;;3.97;2.75;;;;;;;33.68;20.34;100291.47;5055793;28;20029;-71
2023/03/23 09:40:40;;;;;;;2.47;2.28;;;;;;;33.97;20.37;100289.66;5054903;28;20028;-72
2023/03/23 09:43:35;;;;;;;5.07;2.63;;;;;;;34.14;20.37;100270.59;5056729;28;20130;-71
2023/03/23 09:46:00;;;;;;;2.60;2.40;;;;;;;34.89;19.54;100283.06;5057675;28;20047;-72
2023/03/23 09:48:54;;;;;;;6.30;2.70;;;;;;;34.96;19.21;100283.53;5052509;28;20068;-71
2023/03/23 09:51:29;;;;;;;2.65;2.45;;;;;;;34.53;19.80;100259.44;5055462;28;20071;-71
2023/03/23 09:54:01;;;;;;;3.88;2.40;;;;;;;34.52;19.55;100268.91;5057378;28;20029;-71
2023/03/23 09:56:32;;;;;;;3.20;2.38;;;;;;;34.11;19.94;100264.78;5055085;28;20082;-70
2023/03/23 09:59:17;;;;;;;4.43;2.50;;;;;;;33.86;19.67;100274.16;5052264;28;20029;-72
2023/03/23 10:01:47;;;;;;;2.72;2.38;;;;;;;34.29;19.55;100264.91;5053636;28;20082;-71
2023/03/23 10:04:45;;;;;;;3.08;2.47;;;;;;;35.07;19.12;100271.13;5053009;28;20036;-72
2023/03/23 10:07:15;;;;;;;2.20;2.00;;;;;;;34.48;19.49;100263.09;5043280;28;20021;-71
2023/03/23 10:09:43;;;;;;;4.68;2.53;;;;;;;33.65;19.65;100266.16;5051352;28;20028;-72
2023/03/23 10:12:17;;;;;;;3.33;2.17;;;;;;;32.15;21.40;100265.31;5058820;28;20021;-72
2023/03/23 10:14:49;;;;;;;4.05;2.72;;;;;;;30.83;22.83;100255.97;5053732;28;20040;-72
2023/03/23 10:17:25;;;;;;;3.42;2.30;;;;;;;30.11;23.36;100250.13;5053281;28;20454;-71
2023/03/23 10:19:56;;;;;;;2.70;2.50;;;;;;;29.20;24.27;100247.44;5048230;28;20055;-71
2023/03/23 10:22:34;;;;;;;6.95;2.58;;;;;;;28.15;25.68;100243.91;5057173;28;20592;-72
2023/03/23 10:25:23;;;;;;;4.07;2.20;;;;;;;28.14;25.65;100247.75;5060008;28;20036;-72
2023/03/23 10:28:10;;;;;;;3.53;2.22;;;;;;;27.88;25.73;100242.03;5052463;28;20078;-71
2023/03/23 10:30:42;;;;;;;3.58;2.53;;;;;;;27.01;27.02;100224.03;5053316;28;20071;-71
2023/03/23 10:33:22;;;;;;;4.55;2.70;;;;;;;26.63;27.63;100232.00;5061742;28;20032;-71
2023/03/23 10:36:01;;;;;;;4.60;2.00;;;;;;;26.29;28.14;100232.81;5055000;28;20032;-71
2023/03/23 10:38:34;;;;;;;5.22;2.42;;;;;;;25.92;28.66;100229.38;5055007;28;20498;-72
2023/03/23 10:41:06;;;;;;;7.47;2.72;;;;;;;25.50;29.23;100232.38;5063114;28;20507;-71
2023/03/23 10:43:33;;;;;;;3.28;2.78;;;;;;;25.44;29.40;100225.88;5054336;28;20491;-71
2023/03/23 10:46:05;;;;;;;2.70;2.50;;;;;;;25.26;29.71;100225.91;5059316;28;20021;-71
2023/03/23 10:48:36;;;;;;;3.03;2.72;;;;;;;25.07;29.65;100216.03;5054465;28;20116;-71
2023/03/23 10:51:06;;;;;;;4.22;2.60;;;;;;;24.99;30.05;100212.75;5054269;28;20032;-71
2023/03/23 10:53:37;;;;;;;3.95;2.80;;;;;;;24.78;30.35;100224.19;5057365;28;20033;-71
2023/03/23 10:56:04;;;;;;;5.47;2.55;;;;;;;24.73;30.03;100219.38;5057622;28;20029;-71
2023/03/23 10:58:33;;;;;;;4.13;2.42;;;;;;;24.57;30.50;100217.25;5054936;28;20399;-71
2023/03/23 11:01:00;;;;;;;3.03;2.35;;;;;;;24.44;30.75;100212.72;5053033;28;20074;-71
2023/03/23 11:03:35;;;;;;;5.70;3.13;;;;;;;24.41;30.70;100215.91;5056985;28;20020;-71
2023/03/23 11:06:04;;;;;;;5.55;2.78;;;;;;;24.33;30.99;100218.97;5057221;28;20390;-71
2023/03/23 11:08:37;;;;;;;2.85;2.65;;;;;;;24.40;30.84;100207.91;5053633;28;20111;-71
2023/03/23 11:11:18;;;;;;;3.85;2.97;;;;;;;24.23;31.25;100218.63;5056661;28;20475;-73
2023/03/23 11:13:46;;;;;;;4.65;3.00;;;;;;;24.28;30.78;100199.59;5054682;28;20062;-73
2023/03/23 11:16:27;;;;;;;2.90;2.60;;;;;;;24.36;30.48;100196.56;5056920;28;20594;-73
2023/03/23 11:18:53;;;;;;;4.55;3.13;;;;;;;24.14;31.03;100194.47;5057958;28;20104;-73
2023/03/23 11:21:21;;;;;;;3.50;2.90;;;;;;;24.03;31.42;100196.06;5059195;28;20052;-73
2023/03/23 11:23:51;;;;;;;2.67;2.42;;;;;;;23.99;31.40;100188.50;5051666;28;20028;-73
2023/03/23 11:26:30;;;;;;;4.45;2.95;;;;;;;23.91;31.56;100184.09;5058246;28;20487;-73
2023/03/23 11:29:16;;;;;;;6.43;3.55;;;;;;;23.77;31.91;100188.00;5060311;28;20025;-73